Time;durP1;ratioP1;P1;durP2;ratioP2;P2;SDS_P1;SDS_P2;PMS_P1;PMS_P2;Temp;Humidity;BMP_temperature;BMP_pressure;BME280_temperature;BME280_humidity;BME280_pressure;Samples;Min_cycle;Max_cycle;Signal;HPM_P1;HPM_P2
2023/08/18 00:02:52;;;;;;;1.42;1.20;;;25.10;75.10;;;;;;6171320;28;20046;-50
2023/08/18 00:05:54;;;;;;;1.35;1.25;;;25.10;75.10;;;;;;6171863;28;20062;-49
2023/08/18 00:08:55;;;;;;;1.42;1.33;;;24.30;74.40;;;;;;6170258;28;20034;-49
2023/08/18 00:11:57;;;;;;;1.85;1.33;;;25.10;75.10;;;;;;6169748;28;20548;-49
2023/08/18 00:14:59;;;;;;;1.38;1.27;;;24.60;75.10;;;;;;6169638;28;20514;-51
2023/08/18 00:18:02;;;;;;;1.80;1.50;;;25.30;75.10;;;;;;6172200;28;20047;-50
2023/08/18 00:21:04;;;;;;;1.42;1.10;;;25.10;75.50;;;;;;6173451;28;20076;-52
2023/08/18 00:24:06;;;;;;;1.38;1.20;;;25.10;75.50;;;;;;6173767;28;20089;-50
2023/08/18 00:27:10;;;;;;;1.70;1.42;;;25.20;74.90;;;;;;6173833;28;20034;-49
2023/08/18 00:30:12;;;;;;;1.23;1.08;;;25.10;75.20;;;;;;6175836;28;20038;-48
2023/08/18 00:33:14;;;;;;;1.65;1.38;;;25.10;75.10;;;;;;6174304;28;20038;-50
2023/08/18 00:36:16;;;;;;;1.20;1.10;;;25.10;75.20;;;;;;6174854;28;20038;-47
2023/08/18 00:39:17;;;;;;;1.35;1.17;;;24.90;75.10;;;;;;6173866;28;20045;-48
2023/08/18 00:42:22;;;;;;;1.33;1.23;;;24.90;75.30;;;;;;6175013;28;20045;-51
2023/08/18 00:45:23;;;;;;;1.48;1.38;;;25.20;72.80;;;;;;6175475;28;20038;-49
2023/08/18 00:48:26;;;;;;;1.77;1.40;;;26.00;76.00;;;;;;6170597;28;20045;-51
2023/08/18 00:51:28;;;;;;;1.25;1.15;;;25.20;75.80;;;;;;6174316;28;20053;-49
2023/08/18 00:54:30;;;;;;;1.40;1.15;;;24.90;75.70;;;;;;6175051;28;20744;-51
2023/08/18 00:57:33;;;;;;;1.58;1.23;;;24.80;75.10;;;;;;6175028;28;20038;-50
2023/08/18 01:00:36;;;;;;;2.13;1.20;;;25.20;75.40;;;;;;6173331;28;20037;-47
2023/08/18 01:03:42;;;;;;;1.85;1.40;;;24.70;74.80;;;;;;6175840;28;20157;-47
2023/08/18 01:06:43;;;;;;;1.42;1.33;;;25.20;75.50;;;;;;6175864;28;20035;-49
2023/08/18 01:09:48;;;;;;;1.25;1.15;;;25.10;75.60;;;;;;6174796;28;20045;-58
2023/08/18 01:13:02;;;;;;;1.52;1.40;;;24.70;74.10;;;;;;6173460;28;20046;-58
2023/08/18 01:16:08;;;;;;;1.30;1.13;;;25.20;75.40;;;;;;6175565;28;20039;-58
2023/08/18 01:19:14;;;;;;;1.50;1.40;;;25.10;75.40;;;;;;6174215;28;20490;-58
2023/08/18 01:22:19;;;;;;;1.33;1.20;;;25.10;75.40;;;;;;6174330;28;20038;-58
2023/08/18 01:25:21;;;;;;;1.20;1.10;;;24.90;75.30;;;;;;6199463;23;20460;-49
2023/08/18 01:28:24;;;;;;;1.67;1.20;;;25.10;75.70;;;;;;6171768;28;20093;-49
2023/08/18 01:31:31;;;;;;;0.88;0.82;;;24.90;75.20;;;;;;6173296;28;20438;-48
2023/08/18 01:34:39;;;;;;;1.17;1.00;;;25.00;75.10;;;;;;6174027;28;20046;-50
2023/08/18 01:37:44;;;;;;;1.10;1.00;;;25.10;75.70;;;;;;6173044;28;20034;-50
2023/08/18 01:40:50;;;;;;;1.38;1.17;;;25.10;75.20;;;;;;6173442;28;20049;-46
2023/08/18 01:43:52;;;;;;;1.05;0.95;;;25.20;75.40;;;;;;6174985;28;20065;-49
2023/08/18 01:46:53;;;;;;;1.00;0.90;;;25.10;75.30;;;;;;6174288;28;20039;-47
2023/08/18 01:49:55;;;;;;;1.30;0.90;;;25.00;75.40;;;;;;6174397;28;20050;-50
2023/08/18 01:52:56;;;;;;;1.00;0.90;;;25.10;75.40;;;;;;6172394;28;20043;-48
2023/08/18 01:56:00;;;;;;;1.10;0.90;;;24.70;75.80;;;;;;6173078;28;20121;-49
2023/08/18 01:59:04;;;;;;;1.20;1.10;;;25.00;75.30;;;;;;6170712;28;20058;-47
2023/08/18 02:02:05;;;;;;;1.17;0.98;;;25.80;76.10;;;;;;6171496;28;20441;-48
2023/08/18 02:05:09;;;;;;;1.13;0.85;;;25.00;75.50;;;;;;6172074;28;20556;-48
2023/08/18 02:08:10;;;;;;;0.98;0.88;;;24.70;75.50;;;;;;6172231;28;20046;-48
2023/08/18 02:11:14;;;;;;;0.75;0.75;;;25.00;75.60;;;;;;6170565;28;20038;-48
2023/08/18 02:14:15;;;;;;;1.13;1.02;;;24.90;75.70;;;;;;6171611;28;20047;-46
2023/08/18 02:17:17;;;;;;;0.95;0.90;;;25.00;76.40;;;;;;6172754;28;20030;-46
2023/08/18 02:20:20;;;;;;;0.83;0.80;;;25.10;76.20;;;;;;6171166;28;20038;-45
2023/08/18 02:23:21;;;;;;;1.00;0.90;;;25.00;76.50;;;;;;6170545;28;20138;-48
2023/08/18 02:26:25;;;;;;;1.10;0.80;;;25.10;77.10;;;;;;6170349;28;20422;-48
2023/08/18 02:29:28;;;;;;;1.50;1.17;;;25.10;77.00;;;;;;6169698;28;20053;-44
2023/08/18 02:32:29;;;;;;;1.15;1.00;;;25.00;77.10;;;;;;6168314;28;20043;-47
2023/08/18 02:35:31;;;;;;;1.33;1.23;;;25.00;77.30;;;;;;6168135;28;20035;-46
2023/08/18 02:38:35;;;;;;;1.05;0.95;;;24.60;77.70;;;;;;6166705;28;20046;-47
2023/08/18 02:41:40;;;;;;;0.93;0.88;;;25.00;77.40;;;;;;6167007;28;20112;-47
2023/08/18 02:44:41;;;;;;;0.90;0.70;;;25.00;77.40;;;;;;6168255;28;20073;-47
2023/08/18 02:47:44;;;;;;;0.80;0.75;;;25.10;77.70;;;;;;6166878;28;20417;-46
2023/08/18 02:50:46;;;;;;;1.10;1.00;;;25.10;77.70;;;;;;6168186;28;20331;-48
2023/08/18 02:53:50;;;;;;;1.15;0.90;;;24.90;77.50;;;;;;6168783;28;20048;-44
2023/08/18 02:56:52;;;;;;;0.73;0.70;;;24.50;77.40;;;;;;6169806;28;20034;-45
2023/08/18 02:59:53;;;;;;;0.90;0.80;;;25.10;77.60;;;;;;6168579;28;20110;-47
2023/08/18 03:02:56;;;;;;;0.80;0.80;;;24.70;78.00;;;;;;6167923;28;20548;-50
2023/08/18 03:05:59;;;;;;;1.30;0.93;;;24.70;77.90;;;;;;6169156;28;20035;-49
2023/08/18 03:09:01;;;;;;;1.95;0.98;;;25.10;77.90;;;;;;6169594;28;20703;-48
2023/08/18 03:12:05;;;;;;;0.80;0.60;;;24.60;77.40;;;;;;6166376;28;20505;-46
2023/08/18 03:15:10;;;;;;;1.10;1.00;;;25.10;77.90;;;;;;6169223;28;20058;-46
2023/08/18 03:18:11;;;;;;;0.90;0.85;;;25.10;77.70;;;;;;6177552;28;20554;-44
2023/08/18 03:21:13;;;;;;;1.35;1.00;;;25.10;77.90;;;;;;6176630;28;20523;-44
2023/08/18 03:24:15;;;;;;;1.02;0.85;;;24.60;77.60;;;;;;6177150;28;20034;-44
2023/08/18 03:27:18;;;;;;;1.20;0.80;;;25.30;78.20;;;;;;6176673;28;20030;-48
2023/08/18 03:30:20;;;;;;;0.90;0.80;;;25.20;78.30;;;;;;6176577;28;20093;-47
2023/08/18 03:33:22;;;;;;;1.13;0.85;;;25.10;78.30;;;;;;6175043;28;20046;-48
2023/08/18 03:36:27;;;;;;;0.98;0.80;;;25.20;78.10;;;;;;6175642;28;20041;-48
2023/08/18 03:39:29;;;;;;;0.98;0.77;;;25.10;78.20;;;;;;6172859;28;20588;-49
2023/08/18 03:42:32;;;;;;;0.80;0.80;;;24.60;77.80;;;;;;6172471;28;20042;-45
2023/08/18 03:45:35;;;;;;;1.00;0.90;;;25.20;78.60;;;;;;6174731;28;20046;-46
2023/08/18 03:48:36;;;;;;;0.90;0.80;;;25.10;78.10;;;;;;6174727;28;20240;-50
2023/08/18 03:51:38;;;;;;;1.00;0.82;;;25.00;78.20;;;;;;6175920;28;20050;-45
2023/08/18 03:54:41;;;;;;;0.90;0.80;;;25.30;78.40;;;;;;6178089;28;20406;-44
2023/08/18 03:57:43;;;;;;;0.82;0.75;;;25.10;78.20;;;;;;6178986;28;20053;-48
2023/08/18 04:00:44;;;;;;;1.02;0.80;;;25.10;78.40;;;;;;6178149;28;20109;-48
2023/08/18 04:03:46;;;;;;;0.80;0.80;;;25.10;78.40;;;;;;6178216;28;20073;-44
2023/08/18 04:06:47;;;;;;;1.00;0.90;;;25.20;78.30;;;;;;6179208;28;20049;-47
2023/08/18 04:09:49;;;;;;;0.98;0.88;;;24.80;78.20;;;;;;6180766;28;20038;-45
2023/08/18 04:12:51;;;;;;;1.10;1.00;;;25.20;78.50;;;;;;6179686;28;20679;-47
2023/08/18 04:15:53;;;;;;;1.08;1.00;;;25.10;78.60;;;;;;6180403;28;20046;-46
2023/08/18 04:18:56;;;;;;;1.17;0.90;;;25.10;78.30;;;;;;6179372;28;20038;-42
2023/08/18 04:22:00;;;;;;;1.10;1.00;;;25.00;78.60;;;;;;6181043;28;20042;-45
2023/08/18 04:25:03;;;;;;;1.10;1.00;;;24.80;78.90;;;;;;6181373;28;20038;-44
2023/08/18 04:28:08;;;;;;;1.05;0.90;;;25.10;78.50;;;;;;6179224;28;20038;-49
2023/08/18 04:31:13;;;;;;;1.02;0.82;;;25.10;78.20;;;;;;6179748;28;20091;-46
2023/08/18 04:34:19;;;;;;;1.00;0.90;;;24.80;78.80;;;;;;6176391;28;20038;-45
2023/08/18 04:37:21;;;;;;;0.98;0.80;;;25.20;78.90;;;;;;6177203;28;20445;-46
2023/08/18 04:40:23;;;;;;;0.80;0.70;;;25.10;78.90;;;;;;6178456;28;20045;-44
2023/08/18 04:43:31;;;;;;;0.93;0.75;;;25.10;78.50;;;;;;6179008;28;20235;-49
2023/08/18 04:46:33;;;;;;;0.90;0.80;;;25.30;78.80;;;;;;6176937;28;20042;-47
2023/08/18 04:49:39;;;;;;;0.77;0.77;;;25.10;78.20;;;;;;6180101;28;20046;-44
2023/08/18 04:52:44;;;;;;;1.38;0.75;;;25.10;78.90;;;;;;6179611;28;20125;-49
2023/08/18 04:55:46;;;;;;;0.73;0.73;;;24.90;78.50;;;;;;6179295;28;20497;-47
2023/08/18 04:58:49;;;;;;;0.80;0.70;;;25.10;78.80;;;;;;6177808;28;20725;-43
2023/08/18 05:01:51;;;;;;;0.80;0.70;;;25.10;78.70;;;;;;6181072;28;20031;-44
2023/08/18 05:04:53;;;;;;;0.70;0.65;;;25.80;79.20;;;;;;6178766;28;20085;-48
2023/08/18 05:07:54;;;;;;;0.75;0.70;;;25.10;78.80;;;;;;6179092;28;20605;-43
2023/08/18 05:11:04;;;;;;;1.05;0.82;;;25.10;78.90;;;;;;6179049;28;20600;-46
2023/08/18 05:14:08;;;;;;;0.80;0.80;;;25.10;78.70;;;;;;6177776;28;20047;-46
2023/08/18 05:17:12;;;;;;;0.93;0.75;;;25.20;79.20;;;;;;6178628;28;20041;-44
2023/08/18 05:20:13;;;;;;;0.80;0.60;;;25.20;79.10;;;;;;6178646;28;20038;-46
2023/08/18 05:23:16;;;;;;;0.85;0.85;;;24.60;78.60;;;;;;6179725;28;20046;-47
2023/08/18 05:26:17;;;;;;;0.80;0.70;;;25.10;78.30;;;;;;6177701;28;20152;-44
2023/08/18 05:29:19;;;;;;;0.93;0.82;;;25.00;78.90;;;;;;6178656;28;20049;-47
2023/08/18 05:32:21;;;;;;;0.60;0.60;;;25.20;78.90;;;;;;6178983;28;20052;-45
2023/08/18 05:35:22;;;;;;;0.57;0.50;;;25.20;79.20;;;;;;6178689;28;20038;-47
2023/08/18 05:38:25;;;;;;;0.98;0.73;;;25.10;78.80;;;;;;6177291;28;20041;-48
2023/08/18 05:41:29;;;;;;;0.68;0.60;;;25.00;78.80;;;;;;6177247;28;20351;-47
2023/08/18 05:44:33;;;;;;;0.75;0.60;;;24.70;78.30;;;;;;6180767;28;20045;-43
2023/08/18 05:47:34;;;;;;;0.82;0.70;;;25.20;79.00;;;;;;6177871;28;20042;-44
2023/08/18 05:50:38;;;;;;;0.70;0.70;;;25.10;79.30;;;;;;6175764;28;20060;-48
2023/08/18 05:53:40;;;;;;;0.85;0.70;;;25.10;79.00;;;;;;6173694;28;20042;-46
2023/08/18 05:56:41;;;;;;;0.90;0.80;;;25.20;78.90;;;;;;6176740;28;20896;-49
2023/08/18 05:59:43;;;;;;;0.80;0.80;;;25.10;79.50;;;;;;6176555;28;20047;-48
2023/08/18 06:02:45;;;;;;;0.80;0.65;;;25.30;79.20;;;;;;6175054;28;20401;-48
2023/08/18 06:05:46;;;;;;;0.70;0.70;;;24.90;78.90;;;;;;6174983;28;20117;-45
2023/08/18 06:08:50;;;;;;;1.00;0.88;;;25.20;79.10;;;;;;6175065;28;20046;-45
2023/08/18 06:11:51;;;;;;;0.70;0.70;;;25.10;79.10;;;;;;6175082;28;20062;-44
2023/08/18 06:14:53;;;;;;;0.60;0.60;;;25.20;79.00;;;;;;6173883;28;20042;-45
2023/08/18 06:17:55;;;;;;;0.82;0.80;;;24.70;79.00;;;;;;6172445;28;20039;-45
2023/08/18 06:20:56;;;;;;;0.80;0.75;;;25.00;79.10;;;;;;6156814;28;20093;-45
2023/08/18 06:23:58;;;;;;;0.85;0.82;;;25.10;79.50;;;;;;6162054;28;20409;-45
2023/08/18 06:27:02;;;;;;;1.05;0.80;;;25.20;79.40;;;;;;6174137;28;20065;-43
2023/08/18 06:30:06;;;;;;;0.70;0.70;;;25.30;80.50;;;;;;6170277;28;20034;-45
2023/08/18 06:33:08;;;;;;;0.90;0.80;;;24.90;79.30;;;;;;6163736;28;20190;-44
2023/08/18 06:36:09;;;;;;;0.80;0.70;;;25.10;79.30;;;;;;6170858;28;20042;-47
2023/08/18 06:39:18;;;;;;;0.98;0.88;;;25.10;79.10;;;;;;6169080;28;20034;-46
2023/08/18 06:42:20;;;;;;;1.05;0.70;;;25.20;79.70;;;;;;6171565;28;20046;-47
2023/08/18 06:45:22;;;;;;;1.17;1.08;;;25.30;79.20;;;;;;6172512;28;20697;-44
2023/08/18 06:48:23;;;;;;;0.95;0.85;;;25.20;79.50;;;;;;6170963;28;20038;-51
2023/08/18 06:51:26;;;;;;;0.90;0.90;;;24.90;79.20;;;;;;6173014;28;20049;-45
2023/08/18 06:54:29;;;;;;;0.68;0.63;;;25.20;79.60;;;;;;6170209;28;20093;-49
2023/08/18 06:57:30;;;;;;;0.93;0.93;;;25.10;79.30;;;;;;6158099;28;20038;-45
2023/08/18 07:00:33;;;;;;;0.73;0.73;;;25.10;79.70;;;;;;6181681;28;20050;-43
2023/08/18 07:03:35;;;;;;;0.88;0.70;;;25.00;79.40;;;;;;6212857;28;20034;-45
2023/08/18 07:06:36;;;;;;;1.02;0.85;;;25.20;79.50;;;;;;6208277;28;20697;-46
2023/08/18 07:09:38;;;;;;;0.73;0.70;;;25.20;79.80;;;;;;6198639;28;20042;-45
2023/08/18 07:12:39;;;;;;;1.00;0.90;;;25.20;79.80;;;;;;6180176;28;20042;-49
2023/08/18 07:15:42;;;;;;;1.00;0.90;;;25.10;79.50;;;;;;6180021;28;20042;-49
2023/08/18 07:18:43;;;;;;;1.55;0.98;;;24.90;79.60;;;;;;6180537;28;20081;-47
2023/08/18 07:21:45;;;;;;;0.75;0.75;;;25.10;79.60;;;;;;6178989;28;20405;-46
2023/08/18 07:24:50;;;;;;;0.70;0.60;;;25.20;80.00;;;;;;6188660;28;20038;-47
2023/08/18 07:27:52;;;;;;;0.82;0.70;;;25.20;77.10;;;;;;6188323;28;20492;-49
2023/08/18 07:30:55;;;;;;;0.70;0.60;;;25.30;80.00;;;;;;6185558;28;20054;-46
2023/08/18 07:33:57;;;;;;;1.00;0.80;;;25.50;79.70;;;;;;6179952;28;20043;-46
2023/08/18 07:36:59;;;;;;;0.70;0.60;;;25.10;80.00;;;;;;6182424;28;20477;-47
2023/08/18 07:40:05;;;;;;;1.05;0.95;;;24.90;79.40;;;;;;6186714;28;20046;-45
2023/08/18 07:43:06;;;;;;;1.08;0.98;;;25.30;79.80;;;;;;6184226;28;20050;-51
2023/08/18 07:46:10;;;;;;;0.82;0.82;;;25.30;80.00;;;;;;6171221;28;20035;-49
2023/08/18 07:49:11;;;;;;;0.60;0.50;;;25.20;79.80;;;;;;6164639;28;20133;-49
2023/08/18 07:52:13;;;;;;;1.05;0.98;;;25.20;79.80;;;;;;6165677;28;20114;-52
2023/08/18 07:55:15;;;;;;;1.13;0.80;;;25.20;80.10;;;;;;6155415;28;20105;-53
2023/08/18 07:58:16;;;;;;;0.98;0.88;;;25.20;79.90;;;;;;6164909;28;20748;-52
2023/08/18 08:01:19;;;;;;;0.70;0.70;;;25.20;80.10;;;;;;6166380;28;20708;-48
2023/08/18 08:04:23;;;;;;;0.80;0.80;;;24.90;79.70;;;;;;6165559;28;20049;-50
2023/08/18 08:07:24;;;;;;;1.02;0.93;;;25.30;80.30;;;;;;6167569;28;20036;-49
2023/08/18 08:10:26;;;;;;;1.00;1.00;;;25.00;80.00;;;;;;6163976;28;20046;-52
2023/08/18 08:13:28;;;;;;;0.85;0.85;;;25.30;80.30;;;;;;6165135;28;20081;-49
2023/08/18 08:16:30;;;;;;;1.00;0.80;;;24.90;80.20;;;;;;6157569;28;20093;-49
2023/08/18 08:19:31;;;;;;;1.08;0.90;;;25.30;80.40;;;;;;6132587;28;20645;-49
2023/08/18 08:22:33;;;;;;;1.05;0.90;;;25.50;80.50;;;;;;6164874;28;20065;-48
2023/08/18 08:25:37;;;;;;;0.90;0.80;;;25.30;80.60;;;;;;6146839;28;20030;-47
2023/08/18 08:28:38;;;;;;;0.70;0.70;;;25.30;80.70;;;;;;6152878;28;20606;-48
2023/08/18 08:31:40;;;;;;;0.93;0.90;;;25.40;80.90;;;;;;6142844;28;20046;-50
2023/08/18 08:34:48;;;;;;;1.75;0.95;;;25.40;80.70;;;;;;6145815;28;20073;-46
2023/08/18 08:37:50;;;;;;;1.02;0.95;;;25.10;80.40;;;;;;6160633;28;20045;-49
2023/08/18 08:40:54;;;;;;;1.10;1.00;;;25.50;80.80;;;;;;6170425;28;20033;-48
2023/08/18 08:43:56;;;;;;;1.10;0.90;;;25.50;81.20;;;;;;6168101;28;20054;-50
2023/08/18 08:47:03;;;;;;;1.20;1.10;;;25.10;80.40;;;;;;6169194;28;20035;-52
2023/08/18 08:50:07;;;;;;;1.38;1.08;;;25.50;80.70;;;;;;6167853;28;20344;-51
2023/08/18 08:53:11;;;;;;;1.20;1.10;;;25.50;80.70;;;;;;6171019;28;20042;-51
2023/08/18 08:56:16;;;;;;;1.38;1.15;;;26.30;81.30;;;;;;6169397;28;20035;-51
2023/08/18 08:59:18;;;;;;;1.42;1.33;;;25.50;80.80;;;;;;6166685;28;20073;-50
2023/08/18 09:02:20;;;;;;;1.38;1.17;;;25.40;81.30;;;;;;6165855;28;20045;-50
2023/08/18 09:05:28;;;;;;;1.48;1.30;;;25.50;80.80;;;;;;6168211;28;20038;-45
2023/08/18 09:08:31;;;;;;;1.48;1.02;;;25.50;81.30;;;;;;6165509;28;20039;-48
2023/08/18 09:11:39;;;;;;;1.00;0.90;;;25.60;80.50;;;;;;6167647;28;20050;-52
2023/08/18 09:14:41;;;;;;;1.42;1.23;;;25.60;80.10;;;;;;6168163;28;20035;-52
2023/08/18 09:17:45;;;;;;;1.42;1.20;;;25.20;79.90;;;;;;6170126;28;20039;-46
2023/08/18 09:20:46;;;;;;;1.60;1.23;;;25.70;79.60;;;;;;6170483;28;20121;-51
2023/08/18 09:23:55;;;;;;;1.20;1.10;;;25.60;79.10;;;;;;6167950;28;20508;-48
2023/08/18 09:27:06;;;;;;;1.98;1.20;;;25.70;79.20;;;;;;6169030;28;20413;-47
2023/08/18 09:30:08;;;;;;;1.23;1.13;;;25.50;78.30;;;;;;6168494;28;20031;-52
2023/08/18 09:33:10;;;;;;;1.30;1.20;;;25.30;78.40;;;;;;6169514;28;20041;-46
2023/08/18 09:36:14;;;;;;;1.10;1.00;;;25.70;77.80;;;;;;6169956;28;20027;-53
2023/08/18 09:39:16;;;;;;;1.10;1.00;;;25.70;77.90;;;;;;6167066;28;20042;-51
2023/08/18 09:42:17;;;;;;;1.45;1.35;;;25.60;77.50;;;;;;6155751;28;20053;-49
2023/08/18 09:45:22;;;;;;;2.00;1.10;;;26.30;78.00;;;;;;6150728;28;20049;-52
2023/08/18 09:48:27;;;;;;;1.40;1.30;;;26.00;77.60;;;;;;6133594;28;20031;-47
2023/08/18 09:51:30;;;;;;;1.15;1.05;;;25.60;77.30;;;;;;6135040;28;20301;-52
2023/08/18 09:54:40;;;;;;;1.40;1.30;;;25.60;77.10;;;;;;6132379;28;20771;-49
2023/08/18 09:57:49;;;;;;;1.17;0.95;;;25.70;77.10;;;;;;6130675;28;20031;-53
2023/08/18 10:00:56;;;;;;;2.10;1.30;;;25.20;76.60;;;;;;6129311;28;20097;-51
2023/08/18 10:04:00;;;;;;;2.97;1.20;;;25.60;76.80;;;;;;6126215;28;20914;-50
2023/08/18 10:07:02;;;;;;;1.30;1.20;;;25.50;76.70;;;;;;6132429;28;20195;-53
2023/08/18 10:10:05;;;;;;;1.25;1.10;;;25.60;76.70;;;;;;6133324;28;20177;-50
2023/08/18 10:13:08;;;;;;;1.10;1.00;;;24.40;75.80;;;;;;6161517;28;20409;-51
2023/08/18 10:16:11;;;;;;;1.27;1.17;;;25.30;76.20;;;;;;6160470;28;20050;-50
2023/08/18 10:19:41;;;;;;;1.33;1.10;;;25.60;76.10;;;;;;6165236;28;20045;-49
2023/08/18 10:22:45;;;;;;;1.92;1.33;;;25.20;75.90;;;;;;6157521;28;20678;-53
2023/08/18 10:25:50;;;;;;;1.33;1.20;;;25.60;76.60;;;;;;6156749;28;20085;-50
2023/08/18 10:28:54;;;;;;;1.13;1.02;;;25.50;76.10;;;;;;6154594;28;20398;-49
2023/08/18 10:31:56;;;;;;;1.20;1.00;;;25.20;76.70;;;;;;6157804;28;20054;-50
2023/08/18 10:35:20;;;;;;;1.85;1.70;;;25.50;75.90;;;;;;6153760;28;20035;-52
2023/08/18 10:38:26;;;;;;;1.10;1.00;;;24.60;75.00;;;;;;6152349;28;20187;-48
2023/08/18 10:41:32;;;;;;;1.20;1.10;;;25.70;76.10;;;;;;6163330;28;20050;-50
2023/08/18 10:44:34;;;;;;;1.30;1.20;;;25.50;73.00;;;;;;6163366;28;20096;-52
2023/08/18 10:47:35;;;;;;;1.70;1.20;;;24.60;74.90;;;;;;6164288;28;20039;-50
2023/08/18 10:50:40;;;;;;;1.00;0.95;;;25.50;75.30;;;;;;6163137;28;20046;-48
2023/08/18 10:53:43;;;;;;;1.35;1.15;;;26.30;75.90;;;;;;6160426;28;20497;-50
2023/08/18 10:56:46;;;;;;;1.20;1.10;;;25.70;75.20;;;;;;6161511;28;20864;-49
2023/08/18 10:59:51;;;;;;;1.50;1.40;;;25.70;75.60;;;;;;6160706;28;20257;-50
2023/08/18 11:02:54;;;;;;;1.75;1.30;;;25.20;75.10;;;;;;6160263;28;20041;-51
2023/08/18 11:05:59;;;;;;;1.15;1.05;;;25.80;75.90;;;;;;6162131;28;20608;-50
2023/08/18 11:09:04;;;;;;;1.20;1.10;;;25.70;75.70;;;;;;6157678;28;20039;-51
2023/08/18 11:12:08;;;;;;;1.13;1.02;;;25.50;75.40;;;;;;6155716;28;20081;-50
2023/08/18 11:15:11;;;;;;;1.20;1.10;;;25.90;75.10;;;;;;6149216;28;20516;-47
2023/08/18 11:18:14;;;;;;;1.35;1.08;;;25.50;74.60;;;;;;6161042;28;20050;-52
2023/08/18 11:21:16;;;;;;;1.42;1.20;;;25.70;74.80;;;;;;6165052;28;20057;-49
2023/08/18 11:24:18;;;;;;;1.48;1.38;;;25.70;74.80;;;;;;6166670;28;20038;-53
2023/08/18 11:27:22;;;;;;;1.17;1.08;;;25.60;74.60;;;;;;6167987;28;20037;-53
2023/08/18 11:30:24;;;;;;;1.65;1.20;;;25.70;75.00;;;;;;6166644;28;20046;-52
2023/08/18 11:33:26;;;;;;;2.15;1.30;;;25.70;74.70;;;;;;6164271;28;20120;-49
2023/08/18 11:36:29;;;;;;;1.98;1.25;;;25.90;74.90;;;;;;6167316;28;20030;-52
2023/08/18 11:39:32;;;;;;;1.30;1.20;;;25.70;74.60;;;;;;6167632;28;20089;-52
2023/08/18 11:42:33;;;;;;;1.25;1.15;;;25.70;74.80;;;;;;6168378;28;20042;-52
2023/08/18 11:45:35;;;;;;;1.30;1.20;;;25.70;74.80;;;;;;6167867;28;20038;-50
2023/08/18 11:48:36;;;;;;;1.73;1.17;;;25.80;75.20;;;;;;6168033;28;20042;-53
2023/08/18 11:51:53;;;;;;;1.30;1.20;;;25.70;74.40;;;;;;6168253;28;20038;-53
2023/08/18 11:54:57;;;;;;;2.15;1.17;;;25.70;74.50;;;;;;6167086;28;20034;-51
2023/08/18 11:58:05;;;;;;;1.30;1.20;;;25.70;74.10;;;;;;6166404;28;20042;-52
2023/08/18 12:01:09;;;;;;;4.70;1.50;;;25.40;73.80;;;;;;6166594;28;20045;-48
2023/08/18 12:04:12;;;;;;;1.25;1.15;;;25.70;74.50;;;;;;6164832;28;20177;-53
2023/08/18 12:07:13;;;;;;;1.30;1.20;;;25.70;74.10;;;;;;6164063;28;20040;-51
2023/08/18 12:10:18;;;;;;;1.10;1.00;;;25.70;73.80;;;;;;6163241;28;20042;-52
2023/08/18 12:13:21;;;;;;;1.08;0.98;;;25.30;73.50;;;;;;6168377;28;20051;-52
2023/08/18 12:16:22;;;;;;;1.10;1.00;;;25.70;73.80;;;;;;6167537;28;20601;-51
2023/08/18 12:19:27;;;;;;;1.27;0.93;;;25.20;73.50;;;;;;6167143;28;20034;-52
2023/08/18 12:22:28;;;;;;;1.40;1.30;;;25.70;73.80;;;;;;6166936;28;20075;-51
2023/08/18 12:25:31;;;;;;;1.20;1.10;;;25.70;73.70;;;;;;6164412;28;20035;-50
2023/08/18 12:28:34;;;;;;;1.30;1.20;;;25.70;73.60;;;;;;6169533;28;20050;-51
2023/08/18 12:31:36;;;;;;;1.17;1.08;;;25.70;73.60;;;;;;6164828;28;20158;-52
2023/08/18 12:34:37;;;;;;;1.50;1.23;;;25.40;72.90;;;;;;6166789;28;20084;-49
2023/08/18 12:37:40;;;;;;;1.40;1.30;;;25.80;73.50;;;;;;6163548;28;20057;-51
2023/08/18 12:40:43;;;;;;;1.48;1.10;;;25.60;72.70;;;;;;6165532;28;20054;-49
2023/08/18 12:43:45;;;;;;;1.15;0.93;;;25.60;73.10;;;;;;6165934;28;20050;-51
2023/08/18 12:46:47;;;;;;;1.30;1.20;;;25.80;73.00;;;;;;6163868;28;20278;-52
2023/08/18 12:49:48;;;;;;;1.33;1.20;;;25.70;73.10;;;;;;6166963;28;20213;-47
2023/08/18 12:52:50;;;;;;;1.55;0.98;;;25.70;73.10;;;;;;6167058;28;20039;-52
2023/08/18 12:55:52;;;;;;;1.00;0.88;;;25.70;73.10;;;;;;6164140;28;20047;-50
2023/08/18 12:58:53;;;;;;;1.17;1.08;;;25.70;73.60;;;;;;6162578;28;20049;-53
2023/08/18 13:01:55;;;;;;;1.48;1.02;;;25.70;73.00;;;;;;6170162;28;20042;-51
2023/08/18 13:05:00;;;;;;;1.05;0.93;;;25.70;72.90;;;;;;6166708;28;20616;-48
2023/08/18 13:08:02;;;;;;;1.10;1.00;;;25.20;72.70;;;;;;6167472;28;20057;-53
2023/08/18 13:11:04;;;;;;;0.95;0.88;;;25.70;73.00;;;;;;6164387;28;20042;-48
2023/08/18 13:14:06;;;;;;;1.00;0.90;;;25.60;72.40;;;;;;6167203;28;20513;-51
2023/08/18 13:17:09;;;;;;;0.80;0.80;;;25.50;72.10;;;;;;6167458;28;20758;-52
2023/08/18 13:20:11;;;;;;;0.80;0.80;;;25.70;72.20;;;;;;6167113;28;20422;-48
2023/08/18 13:23:12;;;;;;;0.88;0.70;;;25.80;72.20;;;;;;6164336;28;20050;-51
2023/08/18 13:26:14;;;;;;;0.98;0.88;;;25.60;71.90;;;;;;6165336;28;20579;-49
2023/08/18 13:29:16;;;;;;;1.00;0.80;;;25.30;71.50;;;;;;6164589;28;20042;-48
2023/08/18 13:32:17;;;;;;;0.60;0.60;;;25.20;71.70;;;;;;6165188;28;20053;-51
2023/08/18 13:35:19;;;;;;;1.15;1.05;;;25.10;71.60;;;;;;6167760;28;20034;-53
2023/08/18 13:38:20;;;;;;;0.80;0.80;;;25.10;71.50;;;;;;6166342;28;20043;-50
2023/08/18 13:41:23;;;;;;;0.80;0.77;;;25.40;71.50;;;;;;6167441;28;20038;-47
2023/08/18 13:44:25;;;;;;;0.93;0.85;;;25.70;71.80;;;;;;6162086;28;20756;-51
2023/08/18 13:47:28;;;;;;;0.68;0.68;;;24.80;71.00;;;;;;6167241;28;21046;-49
2023/08/18 13:50:30;;;;;;;0.80;0.80;;;25.80;71.40;;;;;;6165225;28;20062;-51
2023/08/18 13:53:33;;;;;;;0.73;0.60;;;25.40;70.70;;;;;;6131601;28;20537;-49
2023/08/18 13:56:35;;;;;;;0.77;0.73;;;25.10;70.80;;;;;;6165307;28;20059;-49
2023/08/18 13:59:37;;;;;;;1.02;0.77;;;25.50;70.80;;;;;;6167838;28;20724;-53
2023/08/18 14:02:38;;;;;;;0.80;0.73;;;25.60;71.00;;;;;;6168636;28;20584;-48
2023/08/18 14:05:43;;;;;;;0.63;0.60;;;25.70;71.10;;;;;;6169403;28;20536;-45
2023/08/18 14:08:44;;;;;;;0.90;0.88;;;25.70;71.00;;;;;;6166506;28;20548;-46
2023/08/18 14:11:51;;;;;;;0.68;0.60;;;25.60;71.50;;;;;;6168809;28;20081;-48
2023/08/18 14:14:55;;;;;;;0.70;0.70;;;25.40;70.90;;;;;;6172730;28;20603;-48
2023/08/18 14:17:57;;;;;;;0.70;0.63;;;25.50;70.50;;;;;;6166189;28;20081;-47
2023/08/18 14:20:59;;;;;;;0.60;0.60;;;25.50;70.90;;;;;;6169187;28;20038;-45
2023/08/18 14:24:02;;;;;;;1.65;0.73;;;25.60;71.40;;;;;;6170156;28;20049;-47
2023/08/18 14:27:06;;;;;;;0.70;0.60;;;25.70;71.00;;;;;;6169658;28;20109;-47
2023/08/18 14:30:09;;;;;;;0.70;0.60;;;25.70;70.70;;;;;;6170244;28;20065;-44
2023/08/18 14:33:11;;;;;;;0.73;0.73;;;25.50;70.70;;;;;;6147428;28;20050;-48
2023/08/18 14:36:14;;;;;;;0.60;0.60;;;25.60;70.20;;;;;;6135621;28;20077;-48
2023/08/18 14:39:15;;;;;;;0.65;0.60;;;24.60;69.80;;;;;;6138490;28;20038;-45
2023/08/18 14:42:17;;;;;;;0.75;0.75;;;24.80;69.80;;;;;;6145747;28;20042;-46
2023/08/18 14:45:24;;;;;;;0.70;0.60;;;25.60;71.00;;;;;;6146675;28;20038;-47
2023/08/18 14:48:26;;;;;;;0.63;0.60;;;25.60;70.50;;;;;;6142758;28;20379;-46
2023/08/18 14:51:31;;;;;;;2.10;0.70;;;25.70;70.80;;;;;;6143322;28;20038;-44
2023/08/18 14:54:36;;;;;;;0.57;0.47;;;25.70;70.80;;;;;;6143028;28;20054;-47
2023/08/18 14:57:38;;;;;;;0.60;0.50;;;25.70;71.20;;;;;;6140178;28;20564;-48
2023/08/18 15:00:40;;;;;;;1.60;0.60;;;25.60;70.90;;;;;;6166561;28;20505;-46
2023/08/18 15:03:41;;;;;;;0.73;0.65;;;25.50;71.20;;;;;;6165962;28;20053;-47
2023/08/18 15:06:46;;;;;;;0.50;0.50;;;25.70;70.90;;;;;;6164052;28;20038;-44
2023/08/18 15:09:53;;;;;;;0.80;0.70;;;25.20;68.90;;;;;;6164988;28;20118;-48
2023/08/18 15:12:56;;;;;;;0.80;0.70;;;25.60;70.50;;;;;;6164917;28;20556;-46
2023/08/18 15:15:57;;;;;;;0.50;0.40;;;25.50;70.50;;;;;;6167228;28;20035;-45
2023/08/18 15:18:59;;;;;;;0.70;0.65;;;25.50;70.50;;;;;;6163535;28;20544;-48
2023/08/18 15:22:01;;;;;;;0.60;0.60;;;25.70;71.00;;;;;;6166692;28;20038;-44
2023/08/18 15:25:03;;;;;;;0.60;0.57;;;25.50;70.40;;;;;;6166455;28;20046;-47
2023/08/18 15:28:05;;;;;;;0.77;0.70;;;25.50;70.50;;;;;;6169489;28;20074;-45
2023/08/18 15:31:11;;;;;;;0.88;0.70;;;25.50;70.30;;;;;;6166604;28;20068;-47
2023/08/18 15:34:13;;;;;;;0.73;0.60;;;25.60;70.60;;;;;;6169903;28;20624;-48
2023/08/18 15:37:14;;;;;;;0.38;0.38;;;25.60;70.50;;;;;;6166534;28;20058;-47
2023/08/18 15:40:19;;;;;;;0.70;0.70;;;25.20;70.40;;;;;;6168067;28;20089;-46
2023/08/18 15:43:21;;;;;;;0.55;0.55;;;25.60;71.00;;;;;;6168985;28;20574;-46
2023/08/18 15:46:23;;;;;;;0.60;0.52;;;25.40;70.60;;;;;;6166721;28;20042;-47
2023/08/18 15:49:24;;;;;;;0.50;0.50;;;25.50;70.60;;;;;;6171022;28;20042;-47
2023/08/18 15:52:26;;;;;;;1.42;0.82;;;25.60;71.00;;;;;;6170551;28;20043;-44
2023/08/18 15:55:28;;;;;;;0.60;0.57;;;25.20;70.20;;;;;;6172080;28;20053;-48